Time;durP1;ratioP1;P1;durP2;ratioP2;P2;SDS_P1;SDS_P2;PMS_P1;PMS_P2;Temp;Humidity;BMP_temperature;BMP_pressure;BME280_temperature;BME280_humidity;BME280_pressure;Samples;Min_cycle;Max_cycle;Signal;HPM_P1;HPM_P2
2022/07/03 00:01:57;;;;;;;3.30;2.67;;;21.80;58.00;;;;;;5097022;28;20383;-59
2022/07/03 00:04:22;;;;;;;4.00;2.80;;;21.80;58.10;;;;;;5098848;28;20054;-58
2022/07/03 00:06:48;;;;;;;3.15;2.63;;;21.80;58.00;;;;;;5105522;28;20060;-59
2022/07/03 00:09:14;;;;;;;3.80;2.70;;;21.70;57.90;;;;;;5106060;28;20502;-59
2022/07/03 00:11:40;;;;;;;4.38;2.67;;;21.70;57.90;;;;;;5111644;28;20041;-59
2022/07/03 00:14:06;;;;;;;3.53;2.83;;;21.70;58.00;;;;;;5100167;28;20036;-59
2022/07/03 00:16:32;;;;;;;2.67;2.47;;;21.70;57.90;;;;;;5101831;28;20027;-59
2022/07/03 00:18:57;;;;;;;3.13;2.72;;;21.70;58.00;;;;;;5103894;28;20035;-59
2022/07/03 00:22:05;;;;;;;3.08;2.25;;;21.70;58.00;;;;;;5105184;28;20092;-59
2022/07/03 00:24:50;;;;;;;4.50;2.75;;;21.70;58.10;;;;;;5065867;28;20083;-59
2022/07/03 00:27:18;;;;;;;3.78;2.58;;;21.60;58.20;;;;;;5101848;28;20028;-59
2022/07/03 00:29:44;;;;;;;3.65;2.63;;;21.60;58.30;;;;;;5105847;28;20040;-59
2022/07/03 00:32:12;;;;;;;4.30;2.72;;;21.60;58.20;;;;;;5099431;28;20031;-59
2022/07/03 00:34:39;;;;;;;2.53;2.20;;;21.60;58.30;;;;;;5084787;28;20490;-59
2022/07/03 00:37:08;;;;;;;3.85;2.72;;;21.50;58.30;;;;;;5104035;28;20394;-58
2022/07/03 00:39:37;;;;;;;3.65;2.60;;;21.50;58.30;;;;;;5107769;28;20077;-59
2022/07/03 00:42:05;;;;;;;4.28;2.78;;;21.40;58.40;;;;;;5103632;28;20028;-59
2022/07/03 00:44:35;;;;;;;3.88;2.83;;;21.40;58.60;;;;;;5103716;28;20051;-58
2022/07/03 00:47:04;;;;;;;3.15;2.65;;;21.30;58.60;;;;;;5109639;28;20030;-59
2022/07/03 00:49:33;;;;;;;3.70;2.67;;;21.30;58.70;;;;;;5097323;28;20115;-59
2022/07/03 00:52:02;;;;;;;3.88;2.80;;;21.20;58.80;;;;;;5099529;28;20019;-59
2022/07/03 00:54:31;;;;;;;3.33;2.67;;;21.10;58.80;;;;;;5102602;28;20028;-59
2022/07/03 00:57:00;;;;;;;3.90;2.67;;;21.10;58.90;;;;;;5098137;28;20066;-59
2022/07/03 00:59:26;;;;;;;3.10;2.53;;;21.00;58.90;;;;;;5107666;28;20115;-59
2022/07/03 01:02:02;;;;;;;3.97;2.70;;;21.00;59.10;;;;;;5094475;28;20107;-59
2022/07/03 01:04:45;;;;;;;3.10;2.55;;;20.90;59.20;;;;;;5106806;28;20036;-59
2022/07/03 01:07:37;;;;;;;4.28;2.90;;;20.90;59.30;;;;;;5105261;28;20069;-59
2022/07/03 01:10:08;;;;;;;4.70;2.90;;;20.80;59.40;;;;;;5111438;28;20069;-58
2022/07/03 01:12:58;;;;;;;2.90;2.40;;;20.80;59.60;;;;;;5099651;28;20475;-58
2022/07/03 01:15:38;;;;;;;4.45;2.83;;;20.70;59.60;;;;;;5104320;28;20046;-58
2022/07/03 01:18:24;;;;;;;3.35;2.80;;;20.70;59.80;;;;;;5101969;28;20024;-59
2022/07/03 01:21:04;;;;;;;6.15;3.10;;;20.60;60.00;;;;;;5093329;28;20118;-59
2022/07/03 01:23:56;;;;;;;3.42;2.90;;;20.60;60.10;;;;;;5097618;28;20039;-58
2022/07/03 01:26:26;;;;;;;3.40;2.67;;;20.50;60.10;;;;;;5103129;28;20050;-59
2022/07/03 01:28:52;;;;;;;3.58;2.67;;;20.40;60.00;;;;;;5107098;28;20027;-59
2022/07/03 01:31:20;;;;;;;3.67;3.00;;;20.40;60.30;;;;;;5098115;28;20024;-59
2022/07/03 01:33:49;;;;;;;3.92;3.00;;;20.40;60.60;;;;;;5101828;28;20093;-59
2022/07/03 01:36:17;;;;;;;4.80;3.30;;;20.30;60.80;;;;;;5108148;28;20040;-59
2022/07/03 01:38:43;;;;;;;4.45;2.90;;;20.20;60.80;;;;;;5103842;28;20030;-59
2022/07/03 01:41:10;;;;;;;4.07;3.42;;;20.20;60.90;;;;;;5100849;28;20028;-59
2022/07/03 01:44:02;;;;;;;4.07;2.80;;;20.20;60.80;;;;;;5103547;28;20111;-59
2022/07/03 01:46:30;;;;;;;3.28;2.50;;;20.20;61.00;;;;;;5095756;28;20036;-59
2022/07/03 01:48:57;;;;;;;3.78;2.90;;;20.10;61.00;;;;;;5093551;28;20458;-59
2022/07/03 01:51:24;;;;;;;3.95;3.10;;;20.10;61.20;;;;;;5100475;28;20019;-59
2022/07/03 01:53:51;;;;;;;3.58;2.80;;;20.10;61.30;;;;;;5099130;28;20016;-59
2022/07/03 01:56:20;;;;;;;3.78;2.88;;;20.00;61.20;;;;;;5107405;28;20102;-59
2022/07/03 01:58:46;;;;;;;3.05;2.55;;;20.00;61.40;;;;;;5094975;28;20388;-59
2022/07/03 02:01:33;;;;;;;3.55;2.90;;;19.90;61.40;;;;;;5103949;28;20031;-59
2022/07/03 02:04:22;;;;;;;2.50;2.10;;;19.90;61.50;;;;;;5102783;28;20534;-59
2022/07/03 02:07:02;;;;;;;3.08;2.20;;;19.90;61.60;;;;;;5100455;28;20028;-59
2022/07/03 02:09:43;;;;;;;2.90;2.50;;;19.80;61.60;;;;;;5100867;28;20061;-59
2022/07/03 02:12:12;;;;;;;2.95;2.50;;;19.80;61.60;;;;;;5094172;28;20471;-59
2022/07/03 02:14:45;;;;;;;3.10;2.38;;;19.80;61.80;;;;;;5101189;28;20028;-59
2022/07/03 02:17:17;;;;;;;2.60;2.28;;;19.80;61.70;;;;;;5097396;28;20032;-59
2022/07/03 02:20:01;;;;;;;3.55;2.53;;;19.80;61.50;;;;;;5096479;28;20032;-58
2022/07/03 02:22:41;;;;;;;3.67;2.28;;;19.80;61.40;;;;;;5099610;28;20028;-58
2022/07/03 02:25:10;;;;;;;2.55;2.13;;;19.80;61.40;;;;;;5098873;28;20111;-59
2022/07/03 02:27:43;;;;;;;2.65;2.30;;;19.90;61.40;;;;;;5103849;28;20081;-58
2022/07/03 02:30:11;;;;;;;2.38;2.17;;;19.90;61.40;;;;;;5107950;28;20364;-59
2022/07/03 02:32:45;;;;;;;2.42;2.22;;;19.90;61.30;;;;;;5102052;28;20111;-58
2022/07/03 02:35:13;;;;;;;2.63;2.08;;;19.90;61.20;;;;;;5095619;28;20483;-59
2022/07/03 02:37:49;;;;;;;2.38;2.10;;;20.00;61.50;;;;;;5106065;27;20043;-59
2022/07/03 02:40:24;;;;;;;2.47;2.25;;;20.00;61.40;;;;;;5101075;28;20034;-59
2022/07/03 02:43:04;;;;;;;2.92;2.55;;;20.00;61.30;;;;;;5096736;28;20484;-59
2022/07/03 02:45:44;;;;;;;3.50;2.30;;;20.10;61.40;;;;;;5106996;28;20044;-59
2022/07/03 02:48:24;;;;;;;2.63;2.10;;;20.10;61.40;;;;;;5095606;28;20280;-58
2022/07/03 02:50:54;;;;;;;3.25;2.60;;;20.10;61.50;;;;;;5099316;28;20051;-59
2022/07/03 02:53:28;;;;;;;2.58;2.08;;;20.20;61.50;;;;;;5105614;28;20085;-59
2022/07/03 02:56:05;;;;;;;2.83;2.50;;;20.20;61.50;;;;;;5100896;28;20031;-59
2022/07/03 02:58:31;;;;;;;2.75;2.30;;;20.30;61.70;;;;;;5102093;28;20566;-59
2022/07/03 03:01:08;;;;;;;2.95;2.22;;;20.30;62.00;;;;;;5101126;28;20084;-59
2022/07/03 03:03:34;;;;;;;2.20;2.00;;;20.40;62.20;;;;;;5095253;28;20039;-59
2022/07/03 03:06:14;;;;;;;4.07;2.28;;;20.40;62.30;;;;;;5099493;28;20402;-59
2022/07/03 03:08:49;;;;;;;2.95;2.33;;;20.50;62.50;;;;;;5093476;28;20024;-59
2022/07/03 03:11:47;;;;;;;2.25;2.03;;;20.60;62.90;;;;;;5097672;28;20515;-59
2022/07/03 03:14:19;;;;;;;2.03;1.92;;;20.60;62.90;;;;;;5079560;28;20550;-59
2022/07/03 03:16:52;;;;;;;2.72;2.33;;;20.70;63.00;;;;;;5101356;28;20152;-59
2022/07/03 03:19:22;;;;;;;3.08;2.33;;;20.70;63.10;;;;;;5092501;28;20399;-59
2022/07/03 03:22:15;;;;;;;4.20;2.35;;;20.80;63.10;;;;;;5094110;28;20499;-59
2022/07/03 03:24:41;;;;;;;2.47;1.98;;;20.90;63.40;;;;;;5100987;28;20051;-59
2022/07/03 03:27:07;;;;;;;2.58;2.13;;;20.90;63.40;;;;;;5096008;28;20024;-59
2022/07/03 03:29:33;;;;;;;2.13;1.92;;;21.00;63.50;;;;;;5096977;28;20024;-59
2022/07/03 03:31:59;;;;;;;2.72;2.20;;;21.10;63.70;;;;;;5099969;28;20099;-59
2022/07/03 03:34:26;;;;;;;1.77;1.67;;;21.30;64.10;;;;;;5099904;28;20173;-59
2022/07/03 03:36:51;;;;;;;1.95;1.80;;;21.50;64.40;;;;;;5101324;28;20119;-59
2022/07/03 03:39:17;;;;;;;2.15;1.95;;;21.80;64.90;;;;;;5099175;28;20169;-59
2022/07/03 03:41:43;;;;;;;2.33;1.90;;;22.20;65.40;;;;;;5101209;28;20029;-59
2022/07/03 03:44:08;;;;;;;2.30;1.90;;;22.70;65.40;;;;;;5097438;28;20036;-59
2022/07/03 03:46:34;;;;;;;3.15;1.92;;;23.40;64.80;;;;;;5096972;28;20145;-59
2022/07/03 03:49:00;;;;;;;2.58;1.70;;;24.10;63.90;;;;;;5103283;28;20040;-59
2022/07/03 03:51:25;;;;;;;1.70;1.58;;;25.10;62.90;;;;;;5097643;28;20023;-57
2022/07/03 03:53:51;;;;;;;1.90;1.65;;;26.20;61.50;;;;;;5105597;28;20028;-57
2022/07/03 03:56:17;;;;;;;2.08;1.60;;;27.30;60.10;;;;;;5096223;28;20020;-56
2022/07/03 03:58:43;;;;;;;1.70;1.60;;;28.40;58.80;;;;;;5107971;28;20073;-56
2022/07/03 04:01:10;;;;;;;2.08;1.80;;;29.40;57.30;;;;;;5101645;28;20024;-56
2022/07/03 04:03:37;;;;;;;1.73;1.35;;;30.40;56.00;;;;;;5110447;28;20036;-57
2022/07/03 04:06:03;;;;;;;1.73;1.60;;;31.40;54.90;;;;;;5105903;28;20615;-57
2022/07/03 04:08:29;;;;;;;2.20;1.60;;;32.20;53.70;;;;;;5100469;28;20030;-57
2022/07/03 04:10:56;;;;;;;1.55;1.45;;;33.10;52.70;;;;;;5097045;28;20028;-57
2022/07/03 04:13:21;;;;;;;1.73;1.63;;;33.80;51.60;;;;;;5103036;27;20023;-57
2022/07/03 04:15:51;;;;;;;1.77;1.67;;;34.50;50.70;;;;;;5096709;28;20098;-57
2022/07/03 04:18:17;;;;;;;1.42;1.30;;;35.20;49.90;;;;;;5104101;28;20432;-57
2022/07/03 04:20:43;;;;;;;1.60;1.50;;;35.80;49.00;;;;;;5100901;28;20024;-57
2022/07/03 04:23:08;;;;;;;1.67;1.52;;;36.40;48.20;;;;;;5100492;28;20019;-57
2022/07/03 04:25:34;;;;;;;1.17;1.13;;;37.00;47.50;;;;;;5111947;28;20376;-57
2022/07/03 04:28:00;;;;;;;1.75;1.38;;;37.40;46.90;;;;;;5101241;28;20107;-57
2022/07/03 04:30:26;;;;;;;1.13;1.13;;;37.80;46.30;;;;;;5103046;28;20039;-57
2022/07/03 04:32:52;;;;;;;1.52;1.33;;;38.30;45.80;;;;;;5103941;28;20077;-55
2022/07/03 04:35:17;;;;;;;2.60;1.27;;;38.60;45.30;;;;;;5099286;28;20024;-57
2022/07/03 04:37:44;;;;;;;1.30;1.20;;;38.90;44.80;;;;;;5092435;28;20024;-57
2022/07/03 04:40:10;;;;;;;1.50;1.40;;;39.30;44.50;;;;;;5105765;28;20062;-56
2022/07/03 04:42:36;;;;;;;1.38;1.27;;;39.50;44.10;;;;;;5109478;28;20045;-57
2022/07/03 04:45:04;;;;;;;1.48;1.38;;;39.70;43.70;;;;;;5105973;28;20495;-57
2022/07/03 04:47:29;;;;;;;1.45;1.10;;;40.00;43.30;;;;;;5102709;28;20031;-57
2022/07/03 04:49:55;;;;;;;1.35;1.15;;;40.20;43.00;;;;;;5097012;28;20043;-57
2022/07/03 04:52:21;;;;;;;1.98;1.30;;;40.40;42.80;;;;;;5106593;28;20031;-57
2022/07/03 04:54:46;;;;;;;1.38;1.33;;;40.70;42.50;;;;;;5099665;28;20503;-58
2022/07/03 04:57:12;;;;;;;1.05;1.05;;;40.90;42.10;;;;;;5099221;28;20103;-58
2022/07/03 04:59:38;;;;;;;1.58;1.48;;;41.00;41.90;;;;;;5104495;28;20019;-57
2022/07/03 05:02:04;;;;;;;1.70;1.48;;;41.20;41.70;;;;;;5106594;28;20357;-58
2022/07/03 05:04:29;;;;;;;1.50;1.33;;;41.30;41.40;;;;;;5098210;28;20031;-59
2022/07/03 05:06:55;;;;;;;1.48;1.38;;;41.40;41.00;;;;;;5094946;28;20040;-58
2022/07/03 05:09:21;;;;;;;1.40;1.30;;;41.50;40.80;;;;;;5104872;28;20395;-58
2022/07/03 05:11:46;;;;;;;1.40;1.30;;;41.70;40.70;;;;;;5100240;28;20020;-58
2022/07/03 05:14:12;;;;;;;1.13;1.13;;;41.80;40.50;;;;;;5091400;28;20020;-56
2022/07/03 05:16:38;;;;;;;1.02;0.80;;;41.90;40.20;;;;;;5108618;28;20405;-57
2022/07/03 05:19:04;;;;;;;1.27;1.13;;;42.00;40.10;;;;;;5105150;28;20032;-57
2022/07/03 05:21:29;;;;;;;1.25;1.15;;;42.00;39.50;;;;;;5102947;28;20088;-58
2022/07/03 05:23:55;;;;;;;1.20;1.10;;;42.10;39.10;;;;;;5097505;28;20039;-57
2022/07/03 05:26:20;;;;;;;1.38;1.27;;;42.00;38.40;;;;;;5099228;28;20028;-57
2022/07/03 05:28:46;;;;;;;1.42;1.33;;;41.70;38.10;;;;;;5098765;28;20083;-57
2022/07/03 05:31:12;;;;;;;1.45;1.35;;;41.00;38.10;;;;;;5095991;28;20392;-57
2022/07/03 05:33:38;;;;;;;1.20;1.10;;;40.10;38.60;;;;;;5104468;28;20036;-56
2022/07/03 05:36:04;;;;;;;1.33;1.23;;;39.00;39.00;;;;;;5099262;28;20107;-57
2022/07/03 05:41:15;;;;;;;1.70;1.55;;;36.90;40.10;;;;;;5106430;27;20073;-57
2022/07/03 05:43:41;;;;;;;1.27;1.17;;;35.90;40.70;;;;;;5107543;28;20020;-57
2022/07/03 05:46:07;;;;;;;1.92;1.63;;;35.10;41.10;;;;;;5100351;28;20031;-57
2022/07/03 05:48:32;;;;;;;1.70;1.60;;;34.40;41.60;;;;;;5099992;28;20063;-57
2022/07/03 05:50:58;;;;;;;1.60;1.45;;;33.70;42.20;;;;;;5104183;28;20502;-57
2022/07/03 05:53:24;;;;;;;1.50;1.40;;;33.00;42.70;;;;;;5099002;28;20017;-58
2022/07/03 05:55:49;;;;;;;1.30;1.20;;;32.40;43.10;;;;;;5099675;28;20040;-58
2022/07/03 05:58:15;;;;;;;1.35;1.25;;;31.90;43.60;;;;;;5100349;28;20828;-58
2022/07/03 06:00:42;;;;;;;1.70;1.60;;;31.50;44.10;;;;;;5098249;28;20043;-59
2022/07/03 06:03:08;;;;;;;1.67;1.58;;;31.20;44.60;;;;;;5099917;28;20028;-57
2022/07/03 06:05:34;;;;;;;2.13;1.75;;;30.80;45.00;;;;;;5102958;28;20039;-59
2022/07/03 06:07:59;;;;;;;3.03;1.65;;;30.50;45.30;;;;;;5093868;27;20028;-59
2022/07/03 06:10:26;;;;;;;2.30;1.80;;;30.40;45.40;;;;;;5099030;28;20065;-59
2022/07/03 06:12:52;;;;;;;1.88;1.60;;;30.20;45.70;;;;;;5102263;27;20107;-59
2022/07/03 06:15:17;;;;;;;1.70;1.60;;;30.10;45.90;;;;;;5104531;28;20219;-59
2022/07/03 06:17:46;;;;;;;1.60;1.50;;;30.00;45.90;;;;;;5100980;28;20099;-59
2022/07/03 06:20:12;;;;;;;1.90;1.58;;;29.90;46.10;;;;;;5097954;28;20039;-59
2022/07/03 06:22:39;;;;;;;1.27;1.17;;;29.80;46.30;;;;;;5101954;28;20024;-58
2022/07/03 06:25:05;;;;;;;1.48;1.08;;;29.60;46.40;;;;;;5099003;28;20077;-59
2022/07/03 06:27:31;;;;;;;1.30;1.20;;;29.50;46.60;;;;;;5095829;28;20027;-58
2022/07/03 06:29:56;;;;;;;2.53;1.70;;;29.40;46.90;;;;;;5107425;28;20027;-59
2022/07/03 06:32:22;;;;;;;1.60;1.50;;;29.30;47.20;;;;;;5108357;27;20026;-59
2022/07/03 06:34:49;;;;;;;1.65;1.55;;;29.20;47.30;;;;;;5108450;28;20020;-59
2022/07/03 06:37:14;;;;;;;1.60;1.50;;;29.00;47.40;;;;;;5095545;28;20373;-59
2022/07/03 06:39:40;;;;;;;1.38;1.27;;;28.90;48.50;;;;;;5105811;27;20031;-59
2022/07/03 06:42:06;;;;;;;2.38;1.70;;;28.70;48.00;;;;;;5100833;28;20099;-58
2022/07/03 06:44:33;;;;;;;2.10;1.90;;;28.60;48.20;;;;;;5095416;28;20063;-59
2022/07/03 06:47:02;;;;;;;1.27;1.20;;;28.50;48.50;;;;;;5095710;28;20035;-59
2022/07/03 06:49:29;;;;;;;1.90;1.75;;;28.40;48.50;;;;;;5094714;28;20172;-59
2022/07/03 06:51:56;;;;;;;1.80;1.70;;;28.30;48.40;;;;;;5097466;28;20048;-59
2022/07/03 06:54:21;;;;;;;1.73;1.63;;;28.20;48.30;;;;;;5093614;28;20016;-59
2022/07/03 06:56:47;;;;;;;1.70;1.60;;;28.10;48.30;;;;;;5100834;28;20487;-59
2022/07/03 06:59:12;;;;;;;1.42;1.33;;;28.00;48.40;;;;;;5102095;28;20004;-59
2022/07/03 07:01:38;;;;;;;2.78;2.33;;;27.90;48.60;;;;;;5095718;28;20031;-59
2022/07/03 07:04:04;;;;;;;2.60;1.90;;;27.80;48.40;;;;;;5098181;28;20050;-59
2022/07/03 07:06:29;;;;;;;1.60;1.50;;;27.80;48.60;;;;;;5095192;28;20096;-59
2022/07/03 07:08:55;;;;;;;1.55;1.45;;;27.70;48.60;;;;;;5093791;28;20024;-58
2022/07/03 07:11:21;;;;;;;1.80;1.70;;;27.70;48.70;;;;;;5102455;28;20020;-59
2022/07/03 07:13:47;;;;;;;1.75;1.65;;;27.70;48.50;;;;;;5095658;28;20080;-59
2022/07/03 07:16:12;;;;;;;1.52;1.40;;;27.60;48.50;;;;;;5086152;28;20168;-58
2022/07/03 07:18:41;;;;;;;1.60;1.50;;;27.50;48.70;;;;;;5102261;28;20027;-58
2022/07/03 07:21:07;;;;;;;1.40;1.30;;;27.50;48.50;;;;;;5100865;28;20035;-58
2022/07/03 07:23:33;;;;;;;1.70;1.60;;;27.50;48.30;;;;;;5094666;28;20504;-59
2022/07/03 07:25:58;;;;;;;1.48;1.38;;;27.40;48.20;;;;;;5101917;28;20023;-58
2022/07/03 07:28:24;;;;;;;2.20;1.50;;;27.50;48.20;;;;;;5098502;28;20034;-59
2022/07/03 07:30:53;;;;;;;1.50;1.40;;;27.40;47.80;;;;;;5102709;28;20096;-58
2022/07/03 07:33:19;;;;;;;1.63;1.52;;;27.40;47.90;;;;;;5102803;28;20506;-59
2022/07/03 07:35:45;;;;;;;1.70;1.60;;;27.40;47.70;;;;;;5093260;28;20020;-59
2022/07/03 07:38:11;;;;;;;1.13;1.08;;;27.40;48.00;;;;;;5102133;28;20020;-58
2022/07/03 07:40:37;;;;;;;1.83;1.48;;;27.40;47.90;;;;;;5104804;28;20076;-59
2022/07/03 07:43:02;;;;;;;1.20;1.10;;;27.40;48.00;;;;;;5105534;28;20062;-58
2022/07/03 07:45:28;;;;;;;1.20;1.10;;;27.40;48.00;;;;;;5095716;28;20051;-59
2022/07/03 07:47:54;;;;;;;1.65;1.55;;;27.40;47.80;;;;;;5096259;28;20102;-59
2022/07/03 07:50:20;;;;;;;1.30;1.20;;;27.30;47.70;;;;;;5093323;28;20028;-59
2022/07/03 07:52:45;;;;;;;1.58;1.48;;;27.30;48.00;;;;;;5099123;28;20024;-59
2022/07/03 07:55:11;;;;;;;1.40;1.30;;;27.30;47.80;;;;;;5102856;28;20648;-59
2022/07/03 07:57:38;;;;;;;1.45;1.35;;;27.30;47.90;;;;;;5099467;28;20142;-59
2022/07/03 08:00:09;;;;;;;1.65;1.30;;;27.20;47.90;;;;;;5110651;28;20088;-60
2022/07/03 08:05:35;;;;;;;2.70;1.70;;;27.30;47.90;;;;;;5092173;28;20035;-58
2022/07/03 08:08:11;;;;;;;1.30;1.20;;;27.20;47.80;;;;;;5098840;28;20043;-59
2022/07/03 08:10:43;;;;;;;1.30;1.20;;;27.30;47.60;;;;;;5096033;28;20028;-58
2022/07/03 08:13:10;;;;;;;1.75;1.58;;;27.20;47.60;;;;;;5099585;28;20536;-58
2022/07/03 08:15:36;;;;;;;1.42;1.33;;;27.20;47.70;;;;;;5107421;28;20133;-58
2022/07/03 08:18:03;;;;;;;1.48;1.38;;;27.20;47.60;;;;;;5102906;28;20024;-58
2022/07/03 08:20:29;;;;;;;1.60;1.50;;;27.20;47.70;;;;;;5109964;28;20016;-59
2022/07/03 08:22:55;;;;;;;1.48;1.38;;;27.10;47.60;;;;;;5107628;28;20427;-58
2022/07/03 08:25:21;;;;;;;1.60;1.50;;;27.10;47.60;;;;;;5104261;28;20110;-58
2022/07/03 08:27:47;;;;;;;2.38;2.13;;;27.10;47.50;;;;;;5101678;28;20081;-58
2022/07/03 08:30:17;;;;;;;1.88;1.77;;;27.10;47.60;;;;;;5102985;28;20055;-58
2022/07/03 08:32:50;;;;;;;2.67;2.00;;;27.00;47.40;;;;;;5108198;28;20047;-58
2022/07/03 08:35:17;;;;;;;1.40;1.30;;;27.00;47.40;;;;;;5109338;28;20274;-57
2022/07/03 08:37:46;;;;;;;2.38;1.88;;;27.00;47.40;;;;;;5100660;28;20079;-58
2022/07/03 08:40:12;;;;;;;2.15;1.95;;;27.00;47.40;;;;;;5100986;28;20032;-57
2022/07/03 08:42:44;;;;;;;2.20;1.77;;;26.90;47.40;;;;;;5100681;28;20036;-58
2022/07/03 08:45:15;;;;;;;1.70;1.58;;;27.00;47.50;;;;;;5103210;28;20044;-58
2022/07/03 08:47:43;;;;;;;1.83;1.73;;;26.90;47.60;;;;;;5104056;28;20075;-58
2022/07/03 08:50:13;;;;;;;1.35;1.25;;;26.90;47.50;;;;;;5108314;27;20283;-58
2022/07/03 08:52:39;;;;;;;;;;;26.90;47.50;;;;;;5107819;28;20488;-58
2022/07/03 08:55:05;;;;;;;1.40;1.30;;;26.90;47.60;;;;;;5105818;28;19990;-58
2022/07/03 08:57:35;;;;;;;1.63;1.50;;;26.80;47.50;;;;;;5103772;28;20031;-58
2022/07/03 09:00:03;;;;;;;2.60;1.60;;;26.80;47.60;;;;;;5099297;28;20024;-58
2022/07/03 09:02:31;;;;;;;2.13;1.80;;;26.80;47.60;;;;;;5100052;28;20024;-58
2022/07/03 09:04:58;;;;;;;2.80;2.05;;;26.70;47.70;;;;;;5109121;28;20072;-58
2022/07/03 09:07:26;;;;;;;1.55;1.45;;;26.70;47.80;;;;;;5102024;28;20031;-58
2022/07/03 09:09:52;;;;;;;2.30;2.13;;;26.60;47.70;;;;;;5099035;28;20027;-57
2022/07/03 09:12:19;;;;;;;1.98;1.77;;;26.60;47.90;;;;;;5108803;28;20545;-58
2022/07/03 09:14:44;;;;;;;1.50;1.40;;;26.60;47.80;;;;;;5105253;28;20728;-57
2022/07/03 09:17:10;;;;;;;1.70;1.60;;;26.60;47.90;;;;;;5099804;28;20036;-57
2022/07/03 09:19:40;;;;;;;1.95;1.85;;;26.50;48.00;;;;;;5097260;28;20114;-58
2022/07/03 09:22:21;;;;;;;2.00;1.83;;;26.50;48.10;;;;;;5080504;28;20035;-58
2022/07/03 09:24:52;;;;;;;3.53;2.63;;;26.50;48.20;;;;;;5095325;28;20318;-57
2022/07/03 09:27:18;;;;;;;;;;;26.40;48.30;;;;;;5107503;28;20028;-58
2022/07/03 09:29:59;;;;;;;4.32;1.73;;;26.40;48.70;;;;;;5094798;28;19947;-58
2022/07/03 09:32:25;;;;;;;1.80;1.70;;;26.30;48.40;;;;;;5105380;27;20023;-58
2022/07/03 09:35:09;;;;;;;2.50;2.28;;;26.30;48.50;;;;;;5099758;28;20028;-58
2022/07/03 09:37:36;;;;;;;3.13;2.03;;;26.30;48.20;;;;;;5096124;28;20485;-57
2022/07/03 09:40:02;;;;;;;1.88;1.70;;;26.30;48.10;;;;;;5104333;28;20034;-56
2022/07/03 09:42:28;;;;;;;2.22;1.85;;;26.20;47.90;;;;;;5102691;28;20019;-57
2022/07/03 09:44:54;;;;;;;2.15;1.98;;;26.20;47.80;;;;;;5110852;28;20054;-56
2022/07/03 09:47:23;;;;;;;1.67;1.58;;;26.20;47.90;;;;;;5100930;28;20036;-56
2022/07/03 09:49:52;;;;;;;1.65;1.50;;;26.20;47.90;;;;;;5096249;28;20383;-56
2022/07/03 09:52:37;;;;;;;1.90;1.80;;;26.20;47.60;;;;;;5097596;28;20028;-56
2022/07/03 09:55:09;;;;;;;1.58;1.48;;;26.20;47.60;;;;;;5096723;28;20044;-56
2022/07/03 09:57:36;;;;;;;2.28;1.52;;;26.10;47.40;;;;;;5096153;28;20058;-56
2022/07/03 10:00:29;;;;;;;2.08;1.88;;;26.10;47.30;;;;;;5100481;28;20027;-57
2022/07/03 10:03:03;;;;;;;1.90;1.80;;;26.10;47.10;;;;;;5097650;28;20047;-56
2022/07/03 10:05:36;;;;;;;1.60;1.50;;;26.10;47.00;;;;;;5105588;28;20032;-57
2022/07/03 10:08:14;;;;;;;2.30;1.98;;;26.10;47.20;;;;;;5102355;28;20062;-56
2022/07/03 10:10:45;;;;;;;2.00;1.80;;;26.00;46.10;;;;;;5102229;28;20031;-57
2022/07/03 10:13:12;;;;;;;;;;;26.00;45.80;;;;;;5105779;28;20051;-56
2022/07/03 10:15:39;;;;;;;2.42;1.90;;;25.90;44.90;;;;;;5101261;28;20252;-57
2022/07/03 10:18:07;;;;;;;3.03;2.15;;;25.90;45.80;;;;;;5098771;28;20460;-56
2022/07/03 10:20:48;;;;;;;3.20;2.88;;;25.90;45.50;;;;;;5103292;28;20023;-57
2022/07/03 10:23:20;;;;;;;1.80;1.45;;;25.80;45.20;;;;;;5104445;28;20540;-57
2022/07/03 10:25:47;;;;;;;3.65;3.00;;;25.80;45.40;;;;;;5094380;28;20024;-57
2022/07/03 10:28:14;;;;;;;2.30;2.10;;;25.80;45.50;;;;;;5095298;28;20020;-57
2022/07/03 10:30:42;;;;;;;3.20;2.00;;;25.80;45.50;;;;;;5103273;28;20032;-57
2022/07/03 10:33:07;;;;;;;2.00;1.77;;;25.80;45.70;;;;;;5105848;28;20387;-57
2022/07/03 10:35:36;;;;;;;1.92;1.80;;;25.80;45.70;;;;;;5101930;28;20020;-56
2022/07/03 10:38:01;;;;;;;2.03;1.83;;;25.90;45.60;;;;;;5100793;27;20016;-57
2022/07/03 10:46:32;;;;;;;1.92;1.73;;;25.90;45.40;;;;;;5093061;28;20062;-57
2022/07/03 10:49:06;;;;;;;2.20;2.00;;;25.80;45.50;;;;;;5094998;28;20024;-56
2022/07/03 10:51:53;;;;;;;2.47;2.28;;;25.90;45.60;;;;;;5098038;28;20032;-57
2022/07/03 10:54:21;;;;;;;1.80;1.70;;;25.90;45.80;;;;;;5105951;28;20447;-57
2022/07/03 10:57:02;;;;;;;2.10;1.90;;;25.90;45.70;;;;;;5102807;28;20038;-56
2022/07/03 10:59:37;;;;;;;2.47;1.65;;;26.00;45.80;;;;;;5105089;28;20153;-56
2022/07/03 11:02:31;;;;;;;1.80;1.70;;;26.00;45.90;;;;;;5097616;28;20028;-57
2022/07/03 11:04:59;;;;;;;1.90;1.70;;;26.00;46.10;;;;;;5082330;28;20040;-56
2022/07/03 11:07:46;;;;;;;2.47;1.88;;;26.00;46.10;;;;;;5105874;28;20093;-57
2022/07/03 11:10:12;;;;;;;2.22;1.75;;;26.00;46.10;;;;;;5097177;28;20134;-56
2022/07/03 11:12:56;;;;;;;2.10;1.80;;;26.10;46.00;;;;;;5101607;28;20094;-57
2022/07/03 11:15:29;;;;;;;1.52;1.42;;;26.10;46.30;;;;;;5094880;28;20045;-57
2022/07/03 11:18:26;;;;;;;2.50;2.00;;;26.00;46.20;;;;;;5105780;28;20019;-57
2022/07/03 11:20:52;;;;;;;1.92;1.73;;;26.00;46.40;;;;;;5094130;28;20030;-57
2022/07/03 11:23:30;;;;;;;1.67;1.58;;;26.00;46.40;;;;;;5097133;28;20107;-56
2022/07/03 11:25:58;;;;;;;1.67;1.50;;;26.00;46.20;;;;;;5093181;28;20039;-57
2022/07/03 11:28:32;;;;;;;2.50;2.10;;;26.00;46.30;;;;;;5104181;28;20099;-57
2022/07/03 11:31:11;;;;;;;1.67;1.58;;;26.00;46.40;;;;;;5098568;28;20023;-57
2022/07/03 11:33:51;;;;;;;2.03;1.65;;;26.00;46.40;;;;;;5103946;28;20039;-57
2022/07/03 11:36:25;;;;;;;1.77;1.65;;;26.00;46.40;;;;;;5100707;28;20036;-57
2022/07/03 11:39:02;;;;;;;2.00;1.73;;;26.00;46.40;;;;;;5096231;28;20028;-56
2022/07/03 11:41:30;;;;;;;2.00;1.80;;;26.00;46.30;;;;;;5099206;28;20028;-57
2022/07/03 11:44:04;;;;;;;1.98;1.85;;;26.00;46.90;;;;;;5094214;28;20705;-57
2022/07/03 11:46:38;;;;;;;2.05;1.80;;;26.00;46.50;;;;;;5095977;28;20031;-58
2022/07/03 11:49:15;;;;;;;1.95;1.80;;;26.00;46.50;;;;;;5098126;28;20032;-58
2022/07/03 11:51:54;;;;;;;1.90;1.75;;;26.00;46.50;;;;;;5096050;28;20024;-58
2022/07/03 11:54:20;;;;;;;2.78;2.40;;;26.00;46.40;;;;;;5090659;28;20024;-58
2022/07/03 11:56:46;;;;;;;3.42;2.67;;;26.00;46.40;;;;;;5099100;28;20030;-58
2022/07/03 11:59:13;;;;;;;2.05;1.88;;;26.00;46.30;;;;;;5099140;28;20035;-58
2022/07/03 12:01:39;;;;;;;2.00;1.90;;;26.00;46.40;;;;;;5103377;28;20383;-58
2022/07/03 12:04:12;;;;;;;1.90;1.80;;;26.00;46.60;;;;;;5100704;28;20024;-58
2022/07/03 12:06:42;;;;;;;1.88;1.77;;;26.00;46.70;;;;;;5093969;28;20028;-58
2022/07/03 12:09:35;;;;;;;1.50;1.40;;;26.00;46.70;;;;;;5100890;28;20039;-58
2022/07/03 12:12:06;;;;;;;1.90;1.80;;;25.90;46.70;;;;;;5102801;28;20116;-58
2022/07/03 12:14:44;;;;;;;1.75;1.65;;;26.00;46.80;;;;;;5098644;28;20020;-58
2022/07/03 12:17:24;;;;;;;1.60;1.50;;;25.90;46.60;;;;;;5096892;28;20024;-58
2022/07/03 12:20:00;;;;;;;1.40;1.30;;;25.90;46.40;;;;;;5102530;28;20551;-58
2022/07/03 12:22:28;;;;;;;3.08;2.22;;;25.90;46.50;;;;;;5108852;28;20048;-58
2022/07/03 12:25:02;;;;;;;2.17;1.98;;;26.00;46.70;;;;;;5102343;28;20136;-58
2022/07/03 12:27:29;;;;;;;1.85;1.75;;;26.00;46.70;;;;;;5103086;28;20021;-58
2022/07/03 12:29:55;;;;;;;2.20;1.80;;;25.90;46.50;;;;;;5098202;28;20035;-59
2022/07/03 12:32:22;;;;;;;1.55;1.45;;;26.00;46.70;;;;;;5097729;28;20028;-58
2022/07/03 12:34:48;;;;;;;1.50;1.40;;;26.00;46.90;;;;;;5106774;28;20586;-58
2022/07/03 12:37:14;;;;;;;1.67;1.55;;;26.00;46.90;;;;;;5111096;28;20020;-58
2022/07/03 12:39:47;;;;;;;1.48;1.30;;;26.00;46.80;;;;;;5096568;28;20024;-58
2022/07/03 12:42:15;;;;;;;2.10;1.80;;;25.90;46.60;;;;;;5103986;28;20028;-58
2022/07/03 12:44:41;;;;;;;2.35;2.13;;;25.90;46.60;;;;;;5098161;28;20047;-58
2022/07/03 12:47:07;;;;;;;4.45;3.03;;;25.90;46.30;;;;;;5107063;28;20080;-58
2022/07/03 12:49:32;;;;;;;3.40;2.67;;;25.90;46.30;;;;;;5100473;28;20099;-58
2022/07/03 12:51:58;;;;;;;5.07;3.40;;;25.90;46.20;;;;;;5108383;28;20103;-58
2022/07/03 12:54:34;;;;;;;4.32;3.10;;;25.90;46.20;;;;;;5082206;28;20028;-58
2022/07/03 13:00:12;;;;;;;2.08;1.95;;;26.00;46.10;;;;;;5055754;28;20043;-58
2022/07/03 13:02:39;;;;;;;1.98;1.70;;;26.00;46.00;;;;;;5098531;28;20017;-58
2022/07/03 13:05:18;;;;;;;5.60;3.05;;;26.10;46.00;;;;;;5103872;27;20114;-58
2022/07/03 13:07:46;;;;;;;2.92;2.40;;;26.10;45.80;;;;;;5104800;28;20573;-58
2022/07/03 13:10:17;;;;;;;2.03;1.75;;;26.20;45.80;;;;;;5097777;28;20039;-58
2022/07/03 13:12:57;;;;;;;2.47;2.00;;;26.30;45.90;;;;;;5104377;28;20024;-58
2022/07/03 13:15:27;;;;;;;3.35;2.40;;;26.30;45.70;;;;;;5095904;27;20486;-58
2022/07/03 13:17:53;;;;;;;;;;;26.30;45.80;;;;;;5106810;28;20031;-58